Latest Weather Observations for Maria Island

IDT60901

Issued at 8:51 pm EDT Friday 20 January 2017 (issued every 10 minutes, with the page automatically refreshed every 10 minutes)

About weather observations | Map of Hobart area stations | Latest observations for Hobart area | Other Formats
Station Details ID: 092124 Name: MARIA ISLAND (POINT LESUEUR) Lat: -42.66 Lon: 148.02 Height: 28.0 m
Data from the previous 72 hours. | See also: Recent months at Maria Island
Date/Time
EDT
Temp
°C
App
Temp
°C
Dew
Point
°C
Rel
Hum
%
Delta-T
°C
Wind Press
QNH
hPa
Press
MSL
hPa
Rain since
9am
mm
Dir  Spd
km/h
Gust
km/h
Spd
kts
Gust
kts
20/08:30pm 13.9 - - - - SSW 33 41 18 22 1001.7 1001.6 13.2
20/08:00pm 14.3 - - - - SSW 32 35 17 19 1001.0 1000.9 13.2
20/07:30pm 14.8 - - - - SSW 35 43 19 23 1000.9 1000.8 13.2
20/07:00pm 14.4 - - - - SSW 30 39 16 21 1000.3 1000.2 13.2
20/06:30pm 14.7 - - - - SSW 32 39 17 21 999.9 999.8 13.2
20/06:00pm 15.1 - - - - S 22 28 12 15 999.5 999.4 13.2
20/05:30pm 14.3 - - - - SSW 22 26 12 14 998.9 998.9 13.2
20/05:00pm 15.2 - - - - SSW 20 26 11 14 998.5 998.5 13.2
20/04:30pm 14.5 - - - - SSW 20 24 11 13 997.8 997.8 13.2
20/04:00pm 14.4 - - - - S 17 20 9 11 997.8 997.8 13.2
20/03:30pm 13.2 - - - - SSE 17 20 9 11 997.7 997.7 13.2
20/03:00pm 12.6 - - - - SSE 19 24 10 13 997.5 997.5 13.0
20/02:30pm 12.4 - - - - SSE 20 24 11 13 997.5 997.5 12.6
20/02:00pm 12.4 - - - - SE 19 26 10 14 997.3 997.3 11.6
20/01:30pm 12.0 - - - - SE 28 35 15 19 996.8 996.8 9.8
20/01:00pm 12.6 - - - - SE 22 30 12 16 996.8 996.8 8.2
20/12:30pm 12.7 - - - - SE 28 35 15 19 996.7 996.7 7.2
20/12:00pm 12.6 - - - - ESE 37 44 20 24 996.5 996.5 6.8
20/11:30am 12.2 - - - - E 39 50 21 27 996.2 996.2 6.0
20/11:00am 12.2 - - - - E 32 46 17 25 996.5 996.5 4.2
20/10:30am 12.6 - - - - E 26 39 14 21 997.1 997.1 2.8
20/10:00am 12.4 - - - - ENE 28 41 15 22 997.5 997.5 1.6
20/09:30am 13.0 - - - - E 24 39 13 21 997.9 997.9 0.4
20/09:00am 13.4 - - - - E 26 37 14 20 998.4 998.4 9.4
20/08:30am 13.5 - - - - ENE 24 33 13 18 998.7 998.7 9.0
20/08:00am 13.3 - - - - E 11 17 6 9 999.6 999.5 7.8
20/07:30am 13.3 - - - - E 11 17 6 9 1000.3 1000.2 6.2
20/07:00am 14.0 - - - - CALM 0 6 0 3 1000.4 1000.3 3.0
20/06:30am 14.3 - - - - E 2 6 1 3 1000.1 1000.0 0.0
20/06:00am 14.6 - - - - NE 19 32 10 17 1000.1 1000.0 0.0
20/05:30am 15.2 - - - - NE 17 26 9 14 1001.2 1001.1 0.0
20/05:00am 15.1 - - - - NNE 19 24 10 13 1002.3 1002.2 0.0
20/04:30am 15.0 - - - - NNE 20 26 11 14 1003.1 1003.0 0.0
20/04:00am 15.0 - - - - N 26 32 14 17 1003.7 1003.6 0.0
20/03:30am 15.2 - - - - N 28 35 15 19 1004.3 1004.2 0.0
20/03:00am 15.4 - - - - N 33 39 18 21 1005.2 1005.1 0.0
20/02:30am 15.2 - - - - N 39 46 21 25 1005.4 1005.3 0.0
20/02:00am 15.3 - - - - N 30 41 16 22 1005.1 1005.0 0.0
20/01:30am 15.2 - - - - NNE 30 37 16 20 1005.3 1005.2 0.0
20/01:00am 15.1 - - - - NNE 24 35 13 19 1006.1 1006.0 0.0
20/12:30am 15.0 - - - - NNE 22 28 12 15 1006.7 1006.6 0.0
20/12:00am 15.0 - - - - NNE 26 35 14 19 1007.0 1006.9 0.0
 
Date/Time
EDT
Temp
°C
App
Temp
°C
Dew
Point
°C
Rel
Hum
%
Delta-T
°C
Wind Press
QNH
hPa
Press
MSL
hPa
Rain since
9am
mm
Dir  Spd
km/h
Gust
km/h
Spd
kts
Gust
kts
19/11:30pm 14.8 - - - - NE 24 35 13 19 1007.6 1007.5 0.0
19/11:00pm 14.7 - - - - NE 22 30 12 16 1008.4 1008.3 0.0
19/10:30pm 14.5 - - - - NE 24 32 13 17 1008.9 1008.8 0.0
19/10:00pm 14.4 - - - - NE 20 28 11 15 1009.8 1009.7 0.0
19/09:30pm 14.2 - - - - NE 20 26 11 14 1010.2 1010.1 0.0
19/09:00pm 14.4 - - - - NE 17 22 9 12 1010.8 1010.7 0.0
19/08:30pm 14.5 - - - - NE 11 17 6 9 1011.6 1011.5 0.0
19/08:00pm 14.4 - - - - NE 13 17 7 9 1011.7 1011.6 0.0
19/07:30pm 14.7 - - - - NE 17 22 9 12 1011.8 1011.7 0.0
19/07:00pm 14.9 - - - - NE 19 26 10 14 1011.8 1011.7 0.0
19/06:30pm 15.5 - - - - NNE 19 24 10 13 1011.9 1011.8 0.0
19/06:00pm 15.3 - - - - E 19 28 10 15 1011.7 1011.6 0.0
19/05:30pm 15.6 - - - - ESE 24 32 13 17 1011.8 1011.7 0.0
19/05:00pm 15.7 - - - - ESE 22 28 12 15 1012.6 1012.5 0.0
19/04:30pm 15.4 - - - - ESE 22 28 12 15 1013.0 1012.9 0.0
19/04:00pm 15.4 - - - - ESE 22 28 12 15 1013.6 1013.5 0.0
19/03:30pm 15.8 - - - - E 20 28 11 15 1014.1 1014.0 0.0
19/03:00pm 16.4 - - - - E 19 24 10 13 1014.4 1014.3 0.0
19/02:30pm 16.1 - - - - E 19 22 10 12 1014.7 1014.6 0.0
19/02:00pm 15.9 - - - - SE 17 28 9 15 1015.0 1014.9 0.0
19/01:30pm 16.3 - - - - E 15 24 8 13 1015.4 1015.3 0.0
19/01:00pm 16.8 - - - - S 11 13 6 7 1015.7 1015.6 0.0
19/12:30pm 16.1 - - - - S 13 17 7 9 1016.1 1016.0 0.0
19/12:00pm 15.9 - - - - S 13 17 7 9 1016.3 1016.2 0.0
19/11:30am 15.5 - - - - SSW 17 22 9 12 1016.7 1016.6 0.0
19/11:00am 15.3 - - - - SSW 19 22 10 12 1016.9 1016.8 0.0
19/10:30am 15.0 - - - - SW 24 30 13 16 1017.3 1017.2 0.0
19/10:00am 14.5 - - - - SW 28 32 15 17 1017.5 1017.4 0.0
19/09:30am 14.1 - - - - SSW 28 33 15 18 1017.4 1017.3 0.0
19/09:00am 14.1 - - - - SSW 20 30 11 16 1017.8 1017.7 0.0
19/08:30am 13.5 - - - - SW 19 24 10 13 1017.7 1017.6 0.0
19/08:00am 13.0 - - - - SW 20 26 11 14 1017.4 1017.3 0.0
19/07:30am 12.8 - - - - SSW 24 32 13 17 1017.2 1017.1 0.0
19/07:00am 12.2 - - - - SW 20 24 11 13 1016.9 1016.8 0.0
19/06:30am 11.9 - - - - SW 22 32 12 17 1016.6 1016.5 0.0
19/06:00am 11.5 - - - - WSW 15 24 8 13 1016.6 1016.5 0.0
19/05:30am 11.7 - - - - WSW 17 20 9 11 1016.2 1016.1 0.0
19/05:00am 11.8 - - - - WSW 20 30 11 16 1015.8 1015.7 0.0
19/04:30am 12.0 - - - - WSW 20 28 11 15 1015.7 1015.6 0.0
19/04:00am 12.2 - - - - WSW 22 32 12 17 1015.4 1015.3 0.0
19/03:30am 12.6 - - - - WSW 24 32 13 17 1015.9 1015.8 0.0
19/03:00am 12.6 - - - - SW 28 37 15 20 1016.0 1015.9 0.0
19/02:30am 12.9 - - - - WSW 26 32 14 17 1016.2 1016.1 0.0
19/02:00am 12.9 - - - - WSW 26 32 14 17 1016.3 1016.2 0.0
19/01:30am 13.1 - - - - SW 32 43 17 23 1016.2 1016.1 0.0
19/01:00am 13.1 - - - - WSW 30 35 16 19 1016.1 1016.0 0.0
19/12:30am 13.2 - - - - SW 28 39 15 21 1016.1 1016.0 0.0
19/12:00am 13.1 - - - - SW 20 26 11 14 1016.1 1016.0 0.0
 
Date/Time
EDT
Temp
°C
App
Temp
°C
Dew
Point
°C
Rel
Hum
%
Delta-T
°C
Wind Press
QNH
hPa
Press
MSL
hPa
Rain since
9am
mm
Dir  Spd
km/h
Gust
km/h
Spd
kts
Gust
kts
18/11:30pm 13.1 - - - - SW 26 32 14 17 1016.1 1016.0 0.0
18/11:00pm 13.4 - - - - SSW 33 39 18 21 1016.0 1015.9 0.0
18/10:30pm 13.5 - - - - SSW 32 41 17 22 1016.0 1015.9 0.0
18/10:00pm 13.6 - - - - SSW 33 39 18 21 1015.5 1015.4 0.0
18/09:30pm 13.7 - - - - SW 30 35 16 19 1015.5 1015.4 0.0
18/09:00pm 14.0 - - - - SSW 46 56 25 30 1014.7 1014.6 0.0
18/08:30pm 14.2 - - - - SSW 39 48 21 26 1014.5 1014.4 0.0
18/08:00pm 14.4 - - - - SSW 48 57 26 31 1013.7 1013.6 0.0
18/07:30pm 15.2 - - - - SSW 50 59 27 32 1013.1 1013.0 0.0
18/07:00pm 15.4 - - - - SSW 48 56 26 30 1012.6 1012.5 0.0
18/06:30pm 15.8 - - - - SSW 43 50 23 27 1012.2 1012.1 0.0
18/06:00pm 16.4 - - - - SSW 43 50 23 27 1011.7 1011.6 0.0
18/05:30pm 16.6 - - - - SSW 46 54 25 29 1011.1 1011.0 0.0
18/05:00pm 16.7 - - - - SSW 43 54 23 29 1010.9 1010.8 0.0
18/04:30pm 16.5 - - - - SSW 43 54 23 29 1010.7 1010.6 0.0
18/04:00pm 16.9 - - - - SSW 43 54 23 29 1010.5 1010.4 0.0
18/03:30pm 17.6 - - - - SW 46 59 25 32 1009.7 1009.6 0.0
18/03:00pm 17.7 - - - - SSW 56 69 30 37 1009.2 1009.1 0.0
18/02:30pm 17.5 - - - - SSW 46 57 25 31 1009.0 1008.9 0.0
18/02:01pm 17.8 - - - - SW 46 65 25 35 1009.0 1008.9 0.0
18/02:00pm 17.6 - - - - SW 46 67 25 36 1009.1 1009.0 0.0
18/01:56pm 17.7 - - - - SW 50 67 27 36 1009.1 1009.0 0.0
18/01:35pm 17.6 - - - - SW 46 70 25 38 1008.5 1008.4 0.0
18/01:30pm 17.3 - - - - SW 37 59 20 32 1008.7 1008.6 0.0
18/01:16pm 17.3 - - - - SW 32 59 17 32 1008.6 1008.5 0.0
18/01:00pm 16.9 - - - - SW 46 61 25 33 1008.7 1008.6 0.0
18/12:30pm 16.7 - - - - SW 46 72 25 39 1007.7 1007.6 0.0
18/12:00pm 17.4 - - - - SW 50 72 27 39 1007.2 1007.1 0.0
18/11:42am 16.6 - - - - SSW 52 72 28 39 1007.1 1007.0 0.0
18/11:30am 17.1 - - - - SW 48 67 26 36 1007.3 1007.2 0.0
18/11:22am 16.9 - - - - SW 46 67 25 36 1006.9 1006.8 0.0
18/11:00am 15.8 - - - - SW 50 67 27 36 1006.5 1006.4 0.0
18/10:48am 16.1 - - - - SW 48 72 26 39 1006.1 1006.0 0.0
18/10:30am 16.0 - - - - SW 54 72 29 39 1005.7 1005.6 0.0
18/10:01am 16.0 - - - - SW 56 74 30 40 1005.3 1005.2 0.0
18/10:00am 16.1 - - - - SW 56 72 30 39 1005.4 1005.3 0.0
18/09:30am 15.4 - - - - SW 52 67 28 36 1004.9 1004.8 0.0
18/09:00am 15.4 - - - - SW 44 56 24 30 1004.6 1004.5 0.0
18/08:57am 15.6 - - - - SW 46 54 25 29 1004.4 1004.3 0.0
18/08:30am 14.8 - - - - SW 28 35 15 19 1004.4 1004.3 0.0
18/08:00am 14.9 - - - - WSW 39 48 21 26 1003.7 1003.6 0.0
18/07:30am 14.4 - - - - WSW 32 44 17 24 1003.6 1003.5 0.0
18/07:00am 14.4 - - - - WSW 33 46 18 25 1003.0 1002.9 0.0
18/06:30am 14.4 - - - - WSW 32 39 17 21 1002.8 1002.7 0.0
18/06:19am 14.5 - - - - WSW 28 50 15 27 1002.6 1002.5 0.0
18/06:00am 14.2 - - - - WSW 22 37 12 20 1002.4 1002.3 0.0
18/05:39am 14.5 - - - - W 32 50 17 27 1001.6 1001.5 0.0
18/05:30am 14.5 - - - - W 33 50 18 27 1001.4 1001.3 0.0
18/05:26am 14.6 - - - - W 28 44 15 24 1001.4 1001.3 0.0
18/05:00am 14.9 - - - - NW 9 15 5 8 1001.1 1001.0 0.0
18/04:30am 14.9 - - - - WNW 7 17 4 9 1001.1 1001.0 0.0
18/04:00am 14.9 - - - - W 15 28 8 15 1000.5 1000.4 0.0
18/03:30am 15.4 - - - - W 24 39 13 21 1001.1 1001.0 0.0
18/03:00am 16.4 - - - - WSW 26 35 14 19 1000.8 1000.7 0.0
18/02:30am 16.9 - - - - WSW 19 30 10 16 1000.6 1000.5 0.0
18/02:00am 17.2 - - - - W 9 15 5 8 1000.6 1000.5 0.0
18/01:30am 17.1 - - - - WSW 11 15 6 8 1000.7 1000.6 0.0
18/01:00am 17.2 - - - - N 4 7 2 4 1000.9 1000.8 0.0
18/12:30am 16.8 - - - - NNW 9 13 5 7 1001.3 1001.2 0.0
18/12:00am 16.5 - - - - WNW 6 7 3 4 1001.5 1001.4 0.0
 
Date/Time
EDT
Temp
°C
App
Temp
°C
Dew
Point
°C
Rel
Hum
%
Delta-T
°C
Wind Press
QNH
hPa
Press
MSL
hPa
Rain since
9am
mm
Dir  Spd
km/h
Gust
km/h
Spd
kts
Gust
kts
17/11:30pm 16.8 - - - - NW 11 13 6 7 1002.0 1001.9 0.0
17/11:00pm 16.6 - - - - NNE 7 11 4 6 1001.8 1001.7 0.0
17/10:30pm 17.1 - - - - NNW 6 6 3 3 1002.1 1002.0 0.0
17/10:00pm 17.2 - - - - NNW 9 13 5 7 1001.6 1001.5 0.0
17/09:30pm 17.2 - - - - NNW 15 20 8 11 1002.1 1002.0 0.0
17/09:00pm 17.3 - - - - NE 9 13 5 7 1002.7 1002.6 0.0

Latest Capital City Observations: Canberra | Sydney | Melbourne | Brisbane | Adelaide | Perth | Hobart | Darwin

Other Formats:

Comma delimited format used in spreadsheet applications
http://www.bom.gov.au/fwo/IDT60901/IDT60901.95988.axf

JavaScript Object Notation format (JSON) in row-major order
http://www.bom.gov.au/fwo/IDT60901/IDT60901.95988.json